Time;durP1;ratioP1;P1;durP2;ratioP2;P2;SDS_P1;SDS_P2;PMS_P1;PMS_P2;Temp;Humidity;BMP_temperature;BMP_pressure;BME280_temperature;BME280_humidity;BME280_pressure;Samples;Min_cycle;Max_cycle;Signal;HPM_P1;HPM_P2
2021/09/10 00:01:43;;;;;;;1782.00;999.90;;;;;;;13.28;80.46;93767.09;5080995;28;20480;-46
2021/09/10 00:04:08;;;;;;;1421.45;991.25;;;;;;;13.38;80.58;93778.34;5077929;28;20524;-48
2021/09/10 00:06:34;;;;;;;1999.90;999.90;;;;;;;13.29;80.87;93765.06;5077305;28;20114;-46
2021/09/10 00:08:59;;;;;;;1670.70;999.90;;;;;;;13.36;80.37;93767.78;5079211;28;20051;-47
2021/09/10 00:11:25;;;;;;;1771.50;996.05;;;;;;;13.40;80.42;93770.94;5079919;28;20112;-47
2021/09/10 00:13:50;;;;;;;1565.43;967.65;;;;;;;13.36;80.62;93767.78;5077796;28;20032;-47
2021/09/10 00:16:16;;;;;;;1751.45;985.05;;;;;;;13.35;80.51;93765.59;5079853;28;20027;-46
2021/09/10 00:18:41;;;;;;;1999.90;999.90;;;;;;;13.35;80.56;93771.88;5077560;28;20055;-47
2021/09/10 00:21:07;;;;;;;1999.90;999.90;;;;;;;13.34;80.58;93764.13;5079561;28;20027;-48
2021/09/10 00:23:32;;;;;;;1549.63;982.50;;;;;;;13.33;80.82;93766.16;5078159;28;20020;-48
2021/09/10 00:25:58;;;;;;;1501.05;988.95;;;;;;;13.36;80.69;93765.00;5078437;28;20023;-47
2021/09/10 00:28:25;;;;;;;1658.85;988.92;;;;;;;13.22;80.93;93771.34;5075689;28;20081;-48
2021/09/10 00:30:50;;;;;;;1604.20;995.13;;;;;;;13.33;80.41;93768.91;5081624;28;20048;-46
2021/09/10 00:33:16;;;;;;;1709.20;999.90;;;;;;;13.40;80.17;93759.84;5079276;28;20032;-48
2021/09/10 00:35:42;;;;;;;1609.82;999.90;;;;;;;13.30;79.97;93756.16;5077996;28;20073;-50
2021/09/10 00:38:07;;;;;;;1698.57;999.90;;;;;;;13.41;79.81;93763.34;5077756;28;20042;-50
2021/09/10 00:40:33;;;;;;;1794.70;999.90;;;;;;;13.44;79.43;93765.75;5078845;28;20029;-46
2021/09/10 00:42:58;;;;;;;1773.15;999.90;;;;;;;13.45;79.66;93766.47;5082723;28;20101;-49
2021/09/10 00:45:24;;;;;;;1704.80;999.90;;;;;;;13.44;79.71;93760.19;5081947;28;20016;-49
2021/09/10 00:47:49;;;;;;;1693.80;999.90;;;;;;;13.37;79.52;93758.19;5083564;28;20016;-49
2021/09/10 00:50:15;;;;;;;1559.93;997.78;;;;;;;13.34;79.86;93761.34;5082893;28;20088;-48
2021/09/10 00:52:41;;;;;;;1684.50;999.90;;;;;;;13.33;79.92;93751.53;5082065;28;20070;-50
2021/09/10 00:55:06;;;;;;;1724.47;999.90;;;;;;;13.35;79.16;93758.00;5083588;28;20008;-48
2021/09/10 00:57:32;;;;;;;1776.75;999.90;;;;;;;13.38;79.38;93756.88;5082268;28;20401;-48
2021/09/10 00:59:57;;;;;;;1627.00;999.90;;;;;;;13.33;79.50;93749.50;5082101;28;20012;-48
2021/09/10 01:02:23;;;;;;;1707.03;999.90;;;;;;;13.30;79.77;93745.06;5082847;28;20032;-49
2021/09/10 01:04:49;;;;;;;1747.88;999.90;;;;;;;13.27;79.72;93748.22;5084461;28;20020;-48
2021/09/10 01:07:14;;;;;;;1599.28;999.90;;;;;;;13.18;79.96;93744.00;5082302;28;20053;-47
2021/09/10 01:09:41;;;;;;;1634.07;999.90;;;;;;;13.06;80.21;93734.59;5083176;28;20220;-49
2021/09/10 01:12:07;;;;;;;1673.82;999.90;;;;;;;13.04;80.27;93739.22;5080034;28;20028;-48
2021/09/10 01:14:33;;;;;;;1713.78;999.70;;;;;;;12.96;80.49;93739.22;5087126;28;20024;-48
2021/09/10 01:16:59;;;;;;;1687.20;999.90;;;;;;;13.16;79.83;93734.78;5092336;28;20056;-47
2021/09/10 01:19:29;;;;;;;1686.32;999.90;;;;;;;13.23;79.61;93742.34;5092429;28;20051;-48
2021/09/10 01:21:57;;;;;;;1690.57;999.90;;;;;;;13.23;79.40;93739.56;5093574;28;20024;-47
2021/09/10 01:24:28;;;;;;;1782.53;999.90;;;;;;;13.24;79.54;93735.47;5093618;28;20028;-51
2021/09/10 01:26:53;;;;;;;1874.63;999.90;;;;;;;13.28;79.90;93744.16;5088176;28;20017;-49
2021/09/10 01:29:19;;;;;;;1725.10;999.90;;;;;;;13.23;79.97;93739.56;5084016;28;20035;-48
2021/09/10 01:31:44;;;;;;;1818.05;999.90;;;;;;;13.12;80.29;93732.38;5092844;28;20509;-48
2021/09/10 01:34:10;;;;;;;1705.00;999.90;;;;;;;13.12;80.19;93734.41;5093134;28;20566;-48
2021/09/10 01:36:35;;;;;;;1582.57;999.20;;;;;;;13.01;80.32;93721.66;5093312;28;20016;-47
2021/09/10 01:39:01;;;;;;;1753.75;999.90;;;;;;;13.11;80.20;93728.13;5092990;28;20031;-48
2021/09/10 01:41:26;;;;;;;1631.50;997.83;;;;;;;13.16;79.90;93734.78;5093298;28;20028;-48
2021/09/10 01:43:52;;;;;;;1728.88;999.90;;;;;;;13.11;80.04;93738.47;5093154;28;20465;-48
2021/09/10 01:46:17;;;;;;;1707.93;999.90;;;;;;;13.15;79.71;93739.56;5093299;28;20389;-49
2021/09/10 01:48:43;;;;;;;1999.90;999.90;;;;;;;13.18;79.58;93746.03;5092887;28;20511;-49
2021/09/10 01:51:08;;;;;;;1663.45;999.90;;;;;;;13.20;79.60;93744.19;5093139;28;20012;-47
2021/09/10 01:53:34;;;;;;;1748.72;999.90;;;;;;;13.21;79.47;93745.66;5092556;28;20462;-48
2021/09/10 01:56:00;;;;;;;1640.95;999.90;;;;;;;13.16;79.69;93738.28;5092828;28;20031;-47
2021/09/10 01:58:25;;;;;;;1715.72;999.90;;;;;;;13.13;79.84;93738.66;5089235;28;20025;-47
2021/09/10 02:00:51;;;;;;;1725.45;999.90;;;;;;;13.13;79.81;93731.06;5072617;28;20093;-47
2021/09/10 02:03:16;;;;;;;1899.85;999.90;;;;;;;13.11;79.56;93738.47;5072697;28;20457;-47
2021/09/10 02:05:42;;;;;;;1705.05;999.90;;;;;;;13.09;80.02;93739.03;5072582;28;20413;-49
2021/09/10 02:08:07;;;;;;;1735.40;999.90;;;;;;;13.08;79.45;93734.78;5072671;28;20036;-48
2021/09/10 02:10:33;;;;;;;1744.05;999.90;;;;;;;13.00;79.59;93730.53;5072203;28;20489;-49
2021/09/10 02:12:58;;;;;;;1757.10;999.90;;;;;;;12.84;79.87;93722.25;5072257;28;20108;-48
2021/09/10 02:15:24;;;;;;;1832.63;999.90;;;;;;;12.83;79.81;93726.31;5072474;28;20183;-49
2021/09/10 02:17:49;;;;;;;1797.03;999.90;;;;;;;12.85;80.07;93734.06;5072120;28;20032;-48
2021/09/10 02:20:15;;;;;;;1785.53;999.90;;;;;;;12.89;79.49;93728.88;5072304;28;20025;-48
2021/09/10 02:22:40;;;;;;;1729.10;999.90;;;;;;;12.86;79.40;93732.78;5072041;28;20039;-47
2021/09/10 02:25:07;;;;;;;1765.68;999.90;;;;;;;12.89;79.00;93729.63;5072366;28;20047;-49
2021/09/10 02:27:32;;;;;;;1714.75;988.70;;;;;;;12.72;79.73;93731.50;5082070;28;20484;-50
2021/09/10 02:29:57;;;;;;;1999.90;999.90;;;;;;;12.64;80.05;93731.53;5091932;28;20040;-47
2021/09/10 02:32:23;;;;;;;1718.05;998.58;;;;;;;12.55;80.37;93729.31;5092309;28;20133;-49
2021/09/10 02:34:48;;;;;;;1999.90;999.90;;;;;;;12.52;80.39;93724.13;5092346;28;20497;-49
2021/09/10 02:37:14;;;;;;;1999.90;999.90;;;;;;;12.42;81.09;93726.72;5091963;28;20035;-47
2021/09/10 02:39:39;;;;;;;1487.22;781.58;;;;;;;12.42;81.48;93723.22;5092141;28;20055;-48
2021/09/10 02:42:05;;;;;;;1999.90;999.90;;;;;;;12.28;81.76;93728.19;5092167;28;20027;-49
2021/09/10 02:44:30;;;;;;;1999.90;999.90;;;;;;;12.31;81.63;93721.56;5091820;28;20413;-49
2021/09/10 02:46:55;;;;;;;1999.90;999.90;;;;;;;12.22;81.46;93726.88;5087691;28;20398;-49
2021/09/10 02:49:21;;;;;;;1831.43;953.15;;;;;;;12.26;81.03;93721.75;5080028;28;20021;-50
2021/09/10 02:51:47;;;;;;;1523.90;936.60;;;;;;;12.36;80.20;93723.41;5080486;28;20027;-49
2021/09/10 02:54:13;;;;;;;1844.18;999.90;;;;;;;12.38;79.97;93720.06;5081281;28;20724;-49
2021/09/10 02:56:38;;;;;;;1625.18;991.72;;;;;;;12.17;79.95;93701.59;5065571;28;20036;-48
2021/09/10 02:59:04;;;;;;;1835.32;999.90;;;;;;;12.28;80.10;93722.66;5079990;28;20020;-48
2021/09/10 03:01:29;;;;;;;1644.63;997.28;;;;;;;12.24;79.88;93711.22;5079947;28;20024;-51
2021/09/10 03:03:54;;;;;;;1829.97;999.90;;;;;;;12.27;79.61;93715.66;5080558;28;20016;-48
2021/09/10 03:06:20;;;;;;;1999.90;999.90;;;;;;;12.11;80.28;93720.44;5079470;28;20036;-49
2021/09/10 03:08:45;;;;;;;1846.25;953.92;;;;;;;12.16;80.48;93722.28;5079952;28;20031;-49
2021/09/10 03:11:12;;;;;;;1749.60;996.50;;;;;;;12.24;80.18;93718.78;5081065;28;20111;-45
2021/09/10 03:13:37;;;;;;;1507.15;921.13;;;;;;;12.15;80.37;93723.56;5078855;28;20619;-46
2021/09/10 03:16:03;;;;;;;1757.20;999.90;;;;;;;11.96;80.27;93703.06;5080392;28;20103;-46
2021/09/10 03:18:29;;;;;;;1766.72;979.13;;;;;;;12.11;79.75;93734.28;5080676;28;20437;-45
2021/09/10 03:20:54;;;;;;;1819.07;999.90;;;;;;;12.11;79.49;93725.22;5078771;28;20024;-46
2021/09/10 03:23:19;;;;;;;1737.47;999.90;;;;;;;11.97;79.72;93735.00;5080814;28;20729;-44
2021/09/10 03:25:45;;;;;;;1818.32;999.90;;;;;;;11.95;79.92;93734.81;5079667;28;20101;-45
2021/09/10 03:28:10;;;;;;;1826.30;999.90;;;;;;;12.02;79.48;93726.50;5079292;28;20475;-46
2021/09/10 03:30:36;;;;;;;1999.90;999.90;;;;;;;11.95;79.98;93729.28;5080798;28;20509;-45
2021/09/10 03:33:01;;;;;;;1747.07;990.90;;;;;;;11.73;80.07;93719.66;5079350;28;20020;-45
2021/09/10 03:35:27;;;;;;;1999.90;999.90;;;;;;;11.91;79.65;93739.97;5079413;28;20027;-45
2021/09/10 03:37:52;;;;;;;1935.88;999.90;;;;;;;11.84;78.76;93733.13;5078053;28;20093;-45
2021/09/10 03:40:18;;;;;;;1911.88;999.90;;;;;;;11.75;79.12;93724.63;5078491;28;20028;-45
2021/09/10 03:42:43;;;;;;;1999.90;999.90;;;;;;;11.67;80.27;93740.47;5079780;28;20024;-45
2021/09/10 03:45:09;;;;;;;1750.10;958.92;;;;;;;11.57;80.70;93740.19;5084699;28;20077;-46
2021/09/10 03:47:35;;;;;;;1999.90;999.90;;;;;;;11.67;80.27;93738.44;5082757;28;20030;-46
2021/09/10 03:50:00;;;;;;;1591.40;907.10;;;;;;;11.65;80.51;93743.72;5081530;28;20119;-47
2021/09/10 03:52:26;;;;;;;1737.78;993.53;;;;;;;11.76;80.30;93748.94;5079504;28;20032;-48
2021/09/10 03:54:51;;;;;;;1857.32;999.90;;;;;;;11.80;79.97;93735.50;5080308;28;20025;-47
2021/09/10 03:57:17;;;;;;;1999.90;999.90;;;;;;;11.71;80.68;93743.59;5075821;28;20032;-47
2021/09/10 03:59:42;;;;;;;1613.47;886.17;;;;;;;11.66;80.72;93747.25;5079818;28;20042;-47
2021/09/10 04:02:08;;;;;;;1988.35;996.83;;;;;;;11.53;80.77;93739.81;5079644;28;20406;-46
2021/09/10 04:04:33;;;;;;;1999.90;999.90;;;;;;;11.12;82.50;93729.72;5078160;28;20024;-47
2021/09/10 04:06:59;;;;;;;1999.90;999.90;;;;;;;11.41;83.18;93744.22;5081021;28;20028;-46
2021/09/10 04:09:24;;;;;;;1999.90;999.90;;;;;;;11.51;83.26;93736.13;5082092;28;20030;-49
2021/09/10 04:11:50;;;;;;;1999.90;999.90;;;;;;;11.54;83.73;93735.78;5080178;28;20116;-48
2021/09/10 04:14:15;;;;;;;1999.90;999.90;;;;;;;11.45;83.88;93744.59;5080809;28;20110;-49
2021/09/10 04:16:41;;;;;;;1999.90;999.90;;;;;;;11.59;83.94;93736.88;5090109;28;20485;-49
2021/09/10 04:19:06;;;;;;;1999.90;999.90;;;;;;;11.71;83.14;93747.13;5090593;28;20077;-48
2021/09/10 04:21:32;;;;;;;1999.90;999.90;;;;;;;11.59;83.46;93753.47;5090394;28;20055;-50
2021/09/10 04:23:57;;;;;;;1999.90;999.90;;;;;;;11.69;82.89;93749.69;5090382;28;20028;-49
2021/09/10 04:26:22;;;;;;;1999.90;999.90;;;;;;;11.77;82.67;93752.47;5089787;28;20525;-48
2021/09/10 04:28:49;;;;;;;1999.90;999.90;;;;;;;11.74;82.74;93753.56;5069636;28;20021;-48
2021/09/10 04:31:15;;;;;;;1999.90;999.90;;;;;;;11.73;82.90;93760.38;5069775;28;20075;-47
2021/09/10 04:33:41;;;;;;;1426.40;726.10;;;;;;;11.73;82.61;93765.91;5069788;28;20029;-47
2021/09/10 04:36:06;;;;;;;1999.90;999.90;;;;;;;11.56;82.80;93755.34;5070222;28;20094;-48
2021/09/10 04:38:32;;;;;;;1999.90;999.90;;;;;;;11.69;83.35;93760.00;5069874;28;20504;-47
2021/09/10 04:40:57;;;;;;;1999.90;999.90;;;;;;;11.72;82.39;93748.56;5070010;28;20029;-47
2021/09/10 04:43:22;;;;;;;1999.90;999.90;;;;;;;11.69;82.80;93760.00;5070117;28;20025;-47
2021/09/10 04:45:48;;;;;;;1999.90;999.90;;;;;;;11.78;82.22;93762.97;5078480;28;20331;-47
2021/09/10 04:48:14;;;;;;;1377.95;684.05;;;;;;;11.73;83.12;93757.63;5080298;28;20415;-47
2021/09/10 04:50:39;;;;;;;1999.90;999.90;;;;;;;11.78;82.80;93748.44;5079946;28;20568;-49
2021/09/10 04:53:05;;;;;;;1999.90;999.90;;;;;;;11.63;83.36;93754.59;5078436;28;20398;-47
2021/09/10 04:55:30;;;;;;;1999.90;999.90;;;;;;;11.76;83.43;93754.47;5080676;28;20020;-49
2021/09/10 04:57:55;;;;;;;1999.90;999.90;;;;;;;11.79;83.37;93760.94;5078477;28;20024;-48
2021/09/10 05:00:21;;;;;;;1999.90;999.90;;;;;;;11.86;82.97;93757.47;5079045;28;20032;-48
2021/09/10 05:02:46;;;;;;;1999.90;999.90;;;;;;;11.90;82.85;93764.13;5080511;28;20028;-48
2021/09/10 05:05:12;;;;;;;1999.90;999.90;;;;;;;11.97;83.05;93757.88;5078193;28;20021;-47
2021/09/10 05:07:37;;;;;;;1999.90;999.90;;;;;;;11.96;83.28;93764.69;5082086;28;20035;-48
2021/09/10 05:10:03;;;;;;;1620.63;877.58;;;;;;;12.05;82.01;93764.16;5081301;28;20138;-46
2021/09/10 05:12:29;;;;;;;1999.90;999.90;;;;;;;12.07;82.37;93769.13;5078993;28;20565;-49
2021/09/10 05:14:54;;;;;;;1999.90;999.90;;;;;;;12.15;83.10;93770.63;5069574;28;20025;-48
2021/09/10 05:17:20;;;;;;;1999.90;999.90;;;;;;;12.37;83.04;93760.13;5069357;28;20035;-48
2021/09/10 05:19:46;;;;;;;1999.90;999.90;;;;;;;12.53;82.44;93758.84;5069640;28;20020;-47
2021/09/10 05:22:11;;;;;;;1999.90;999.90;;;;;;;12.71;82.20;93764.00;5069453;28;20142;-47
2021/09/10 05:24:39;;;;;;;1959.07;999.90;;;;;;;12.93;81.53;93756.94;5069483;28;20021;-47
2021/09/10 05:27:04;;;;;;;1903.55;999.90;;;;;;;13.07;81.19;93755.50;5076001;28;20100;-47
2021/09/10 05:29:30;;;;;;;1980.38;999.90;;;;;;;13.26;80.62;93750.25;5087476;28;20106;-49
2021/09/10 05:31:55;;;;;;;1999.90;999.90;;;;;;;13.23;79.92;93734.03;5089018;28;20020;-48
2021/09/10 05:34:21;;;;;;;1999.90;999.90;;;;;;;13.59;78.66;93751.06;5093164;28;20024;-49
2021/09/10 05:36:46;;;;;;;1999.90;999.90;;;;;;;13.65;78.67;93759.94;5087469;28;20031;-47
2021/09/10 05:39:12;;;;;;;1999.90;999.90;;;;;;;13.70;77.98;93747.88;5084576;28;20055;-47
2021/09/10 05:41:37;;;;;;;1993.75;999.90;;;;;;;13.83;78.51;93755.97;5081587;28;20078;-48
2021/09/10 05:44:03;;;;;;;1999.90;999.90;;;;;;;13.93;78.46;93747.75;5081395;28;20016;-47
2021/09/10 05:46:28;;;;;;;1993.35;999.90;;;;;;;14.02;78.30;93749.94;5079314;28;20040;-48
2021/09/10 05:48:54;;;;;;;1959.78;999.90;;;;;;;13.95;78.27;93739.59;5081015;28;20430;-47
2021/09/10 05:51:19;;;;;;;1994.07;999.90;;;;;;;14.00;78.27;93739.41;5081648;28;20688;-50
2021/09/10 05:53:45;;;;;;;1994.50;999.90;;;;;;;13.90;79.59;93737.78;5077825;28;20012;-48
2021/09/10 05:56:10;;;;;;;1999.90;999.90;;;;;;;13.85;80.23;93738.75;5079858;28;20032;-47
2021/09/10 05:58:36;;;;;;;1999.90;999.90;;;;;;;13.74;81.78;93734.34;5080461;27;20066;-48
2021/09/10 06:01:02;;;;;;;1851.20;932.67;;;;;;;13.81;83.01;93733.59;5082556;28;20081;-48
2021/09/10 06:03:28;;;;;;;1999.90;999.90;;;;;;;13.85;84.12;93742.25;5080551;28;20020;-48
2021/09/10 06:05:53;;;;;;;1999.90;999.90;;;;;;;13.93;82.36;93737.41;5081333;28;20020;-49
2021/09/10 06:08:19;;;;;;;1833.65;999.90;;;;;;;13.93;82.00;93731.09;5082242;28;20031;-46
2021/09/10 06:10:47;;;;;;;1906.88;971.42;;;;;;;13.97;82.85;93737.75;5080717;28;20020;-47
2021/09/10 06:13:13;;;;;;;1999.90;999.90;;;;;;;13.97;79.85;93729.41;5084236;28;20035;-47
2021/09/10 06:15:38;;;;;;;1999.90;999.90;;;;;;;14.21;79.83;93741.84;5082364;28;20025;-48
2021/09/10 06:18:04;;;;;;;1999.90;999.90;;;;;;;14.34;79.76;93745.13;5074617;28;20032;-48
2021/09/10 06:20:30;;;;;;;1868.55;999.90;;;;;;;14.46;78.17;93737.09;5078032;28;20432;-47
2021/09/10 06:22:55;;;;;;;1794.40;999.90;;;;;;;14.54;76.42;93732.19;5078306;28;20020;-47
2021/09/10 06:25:21;;;;;;;1642.05;999.90;;;;;;;14.49;75.86;93735.22;5080698;28;20429;-48
2021/09/10 06:27:46;;;;;;;1800.18;999.90;;;;;;;14.62;77.08;93746.03;5082843;28;20020;-46
2021/09/10 06:30:12;;;;;;;1476.93;999.90;;;;;;;14.76;75.76;93738.88;5086554;28;20044;-48
2021/09/10 06:32:37;;;;;;;1627.20;999.90;;;;;;;14.90;75.77;93738.00;5092097;28;20478;-46
2021/09/10 06:35:03;;;;;;;1297.60;999.90;;;;;;;14.95;74.37;93744.63;5091984;28;20107;-48
2021/09/10 06:37:30;;;;;;;1254.13;999.90;;;;;;;15.10;74.42;93741.69;5081482;28;20028;-47
2021/09/10 06:39:55;;;;;;;1172.65;999.90;;;;;;;15.24;73.02;93750.47;5071414;28;20020;-47
2021/09/10 06:42:21;;;;;;;1139.75;963.95;;;;;;;15.29;71.08;93750.22;5071441;28;20032;-47
2021/09/10 06:44:47;;;;;;;1222.47;999.90;;;;;;;15.36;71.91;93745.88;5085357;28;20039;-47
2021/09/10 06:47:12;;;;;;;1265.20;999.90;;;;;;;15.47;74.04;93746.16;5091308;28;20024;-47
2021/09/10 06:49:38;;;;;;;1028.78;928.83;;;;;;;15.79;72.20;93745.19;5090907;28;20099;-47
2021/09/10 06:52:04;;;;;;;1242.90;896.08;;;;;;;16.31;69.68;93743.75;5090756;28;20408;-47
2021/09/10 06:54:29;;;;;;;1055.20;945.00;;;;;;;16.75;71.57;93749.25;5091954;28;20023;-48
2021/09/10 06:56:54;;;;;;;1013.97;815.92;;;;;;;17.49;69.17;93745.72;5091845;28;20031;-47
2021/09/10 06:59:20;;;;;;;1419.95;950.15;;;;;;;18.04;63.28;93742.03;5091602;28;20024;-47
2021/09/10 07:01:46;;;;;;;1428.47;967.72;;;;;;;18.13;63.17;93744.78;5088845;28;20024;-47
2021/09/10 07:04:12;;;;;;;1486.90;972.53;;;;;;;18.41;61.45;93745.31;5089613;28;20693;-47
2021/09/10 07:06:38;;;;;;;1538.75;982.90;;;;;;;19.41;56.59;93749.44;5090190;27;20040;-47
2021/09/10 07:09:04;;;;;;;1547.93;999.17;;;;;;;20.58;53.29;93742.19;5089600;28;20027;-47
2021/09/10 07:11:32;;;;;;;1349.70;994.67;;;;;;;22.31;48.76;93733.47;5089709;28;20039;-49
2021/09/10 07:13:57;;;;;;;1127.15;961.15;;;;;;;24.23;45.04;93744.19;5090570;28;20020;-46
2021/09/10 07:16:23;;;;;;;1197.13;999.90;;;;;;;25.68;40.37;93750.13;5091064;28;20489;-45
2021/09/10 07:18:48;;;;;;;1287.72;999.90;;;;;;;27.12;37.66;93743.19;5091262;28;20024;-46
2021/09/10 07:21:14;;;;;;;1197.75;999.90;;;;;;;28.27;34.90;93739.50;5091387;28;20028;-46
2021/09/10 07:23:39;;;;;;;1139.03;999.90;;;;;;;29.44;31.70;93755.25;5091161;28;20020;-45
2021/09/10 07:26:05;;;;;;;1167.72;999.90;;;;;;;30.31;30.32;93743.38;5091084;28;20024;-46
2021/09/10 07:28:31;;;;;;;1129.35;999.90;;;;;;;30.73;29.01;93744.44;5076668;28;20020;-47
2021/09/10 07:30:57;;;;;;;1089.40;995.13;;;;;;;31.25;26.60;93748.47;5090959;28;20438;-46
2021/09/10 07:33:22;;;;;;;1094.35;998.92;;;;;;;31.61;27.28;93748.53;5091346;28;20020;-47
2021/09/10 07:35:48;;;;;;;1047.00;964.22;;;;;;;32.63;25.54;93752.63;5090913;28;20560;-47
2021/09/10 07:38:13;;;;;;;989.75;915.83;;;;;;;33.07;23.90;93749.72;5090914;28;20020;-47
2021/09/10 07:40:39;;;;;;;890.45;829.55;;;;;;;33.75;23.19;93746.34;5089449;28;20028;-46
2021/09/10 07:43:04;;;;;;;859.30;801.30;;;;;;;33.76;23.02;93753.53;5090727;28;20024;-46
2021/09/10 07:45:29;;;;;;;850.05;792.88;;;;;;;34.27;22.88;93752.69;5090788;28;20016;-47
2021/09/10 07:47:55;;;;;;;773.67;724.15;;;;;;;34.89;21.39;93746.81;5090876;28;20020;-49
2021/09/10 07:50:20;;;;;;;783.60;733.92;;;;;;;35.18;21.44;93750.63;5090595;28;20024;-48
2021/09/10 07:52:46;;;;;;;763.83;715.45;;;;;;;35.59;20.97;93744.41;5090596;28;20023;-48
2021/09/10 07:55:11;;;;;;;726.38;680.97;;;;;;;34.55;21.23;93729.31;5090888;28;20020;-48
2021/09/10 07:57:37;;;;;;;731.42;686.20;;;;;;;34.48;21.40;93748.59;5090533;28;20020;-47
2021/09/10 08:00:03;;;;;;;697.05;654.25;;;;;;;34.51;21.46;93746.50;5090349;28;20071;-48
2021/09/10 08:02:29;;;;;;;688.30;645.45;;;;;;;35.09;20.79;93746.28;5090556;28;20028;-47
2021/09/10 08:04:59;;;;;;;680.20;638.67;;;;;;;35.55;20.23;93744.41;5089429;28;20026;-46
2021/09/10 08:07:26;;;;;;;628.25;591.90;;;;;;;35.67;19.67;93747.31;5090679;28;20055;-47
2021/09/10 08:09:51;;;;;;;640.45;602.75;;;;;;;35.82;19.51;93748.13;5072170;28;20032;-48
2021/09/10 08:12:17;;;;;;;585.78;551.80;;;;;;;35.43;18.95;93741.44;5090616;28;20020;-47
2021/09/10 08:14:42;;;;;;;604.72;569.08;;;;;;;35.49;19.40;93738.63;5090383;28;20024;-48
2021/09/10 08:17:08;;;;;;;570.42;537.25;;;;;;;35.77;19.22;93730.16;5090069;28;20024;-49
2021/09/10 08:19:33;;;;;;;556.55;524.00;;;;;;;35.54;19.73;93733.63;5090512;28;20058;-50
2021/09/10 08:21:59;;;;;;;512.63;484.33;;;;;;;35.96;17.44;93730.22;5090432;28;20485;-51
2021/09/10 08:24:24;;;;;;;588.72;553.67;;;;;;;36.28;19.18;93730.28;5090458;28;20444;-49
2021/09/10 08:26:49;;;;;;;609.55;573.33;;;;;;;35.47;19.21;93738.59;5090165;28;20101;-51
2021/09/10 08:29:15;;;;;;;611.92;575.88;;;;;;;36.09;19.00;93743.19;5089786;28;20024;-50
2021/09/10 08:31:41;;;;;;;569.95;536.67;;;;;;;36.04;18.68;93733.84;5089859;28;20044;-48
2021/09/10 08:34:07;;;;;;;621.30;584.05;;;;;;;36.68;18.61;93732.53;5090076;28;20508;-48
2021/09/10 08:36:32;;;;;;;569.38;536.47;;;;;;;36.54;17.70;93729.66;5081618;28;20029;-50
2021/09/10 08:38:59;;;;;;;571.33;536.75;;;;;;;35.99;19.42;93728.81;5070204;28;20024;-47
2021/09/10 08:41:26;;;;;;;582.42;548.83;;;;;;;36.28;18.96;93718.78;5070039;28;20028;-49
2021/09/10 08:43:53;;;;;;;619.28;582.33;;;;;;;36.28;19.36;93725.25;5070118;28;20028;-51
2021/09/10 08:46:19;;;;;;;588.13;554.00;;;;;;;35.40;18.87;93734.25;5068566;28;20039;-49
2021/09/10 08:48:46;;;;;;;656.55;616.50;;;;;;;34.42;20.99;93728.47;5069770;28;20020;-49
2021/09/10 08:51:13;;;;;;;606.83;570.22;;;;;;;33.33;21.40;93724.34;5069787;28;20025;-51
2021/09/10 08:53:38;;;;;;;565.88;532.30;;;;;;;33.56;22.00;93723.25;5069675;28;20028;-47
2021/09/10 08:56:04;;;;;;;532.20;501.90;;;;;;;33.19;21.87;93723.44;5069741;28;20028;-49
2021/09/10 08:58:29;;;;;;;527.70;497.55;;;;;;;33.02;22.17;93716.03;5069744;28;20021;-48
2021/09/10 09:00:59;;;;;;;443.02;418.67;;;;;;;33.21;21.00;93726.31;5069537;28;20078;-47
2021/09/10 09:03:27;;;;;;;474.17;447.15;;;;;;;33.57;20.83;93718.22;5072116;28;20028;-48
2021/09/10 09:05:53;;;;;;;478.10;451.50;;;;;;;34.31;21.15;93727.66;5073409;28;20081;-50
2021/09/10 09:08:18;;;;;;;464.58;438.55;;;;;;;33.99;20.71;93727.31;5073409;28;20028;-52
2021/09/10 09:10:56;;;;;;;474.13;447.27;;;;;;;34.13;20.47;93726.75;5074139;28;20021;-48
2021/09/10 09:13:24;;;;;;;423.30;400.70;;;;;;;34.34;19.16;93729.13;5093717;28;20035;-48
2021/09/10 09:16:10;;;;;;;397.33;376.17;;;;;;;34.22;18.22;93720.41;5093887;28;20040;-53
2021/09/10 09:18:41;;;;;;;458.60;433.10;;;;;;;33.44;19.32;93719.47;5093553;28;20032;-52
2021/09/10 09:21:06;;;;;;;381.35;362.08;;;;;;;33.01;19.21;93723.88;5093406;28;20214;-52
2021/09/10 09:23:32;;;;;;;376.08;356.75;;;;;;;33.06;19.34;93722.53;5093423;28;20103;-52
2021/09/10 09:25:57;;;;;;;320.45;304.35;;;;;;;33.46;18.68;93719.50;5093283;28;20024;-54
2021/09/10 09:28:31;;;;;;;316.45;300.35;;;;;;;34.08;18.60;93714.53;5093225;28;20016;-53
2021/09/10 09:31:02;;;;;;;285.05;271.20;;;;;;;34.71;16.86;93712.25;5093031;28;20059;-53
2021/09/10 09:33:31;;;;;;;363.52;345.00;;;;;;;35.39;17.64;93700.50;5079064;28;20039;-54
2021/09/10 09:35:59;;;;;;;330.20;313.65;;;;;;;35.66;16.11;93694.19;5073075;28;20456;-54
2021/09/10 09:38:27;;;;;;;359.00;340.70;;;;;;;36.18;15.77;93702.25;5073265;28;20035;-55
2021/09/10 09:40:55;;;;;;;338.40;320.48;;;;;;;36.37;15.38;93703.00;5073031;28;20161;-54
2021/09/10 09:43:23;;;;;;;358.95;339.85;;;;;;;37.18;15.51;93698.69;5073126;28;20020;-54
2021/09/10 09:45:50;;;;;;;406.15;384.38;;;;;;;37.35;15.01;93699.41;5073047;28;20465;-54
2021/09/10 09:48:17;;;;;;;347.73;329.05;;;;;;;36.88;14.80;93695.84;5072674;28;20117;-55
2021/09/10 09:50:44;;;;;;;389.60;369.42;;;;;;;37.34;14.94;93689.28;5072711;28;20503;-55
2021/09/10 09:53:12;;;;;;;415.05;392.13;;;;;;;37.71;14.83;93696.38;5072606;28;20122;-54
2021/09/10 09:55:37;;;;;;;;;;;;;;;37.46;16.30;93692.16;5073378;28;20036;-55
2021/09/10 09:58:04;;;;;;;391.13;369.33;;;;;;;37.13;16.39;93688.63;5084509;28;20339;-54
2021/09/10 10:00:35;;;;;;;444.27;419.45;;;;;;;36.56;17.93;93695.13;5092656;28;20032;-54
2021/09/10 10:03:01;;;;;;;429.48;406.40;;;;;;;35.70;18.41;93693.47;5091822;28;20096;-52
2021/09/10 10:05:27;;;;;;;416.88;394.33;;;;;;;35.48;18.51;93653.19;5092912;28;20024;-49
2021/09/10 10:08:05;;;;;;;395.38;374.95;;;;;;;35.52;17.82;93699.16;5092812;28;20420;-48
2021/09/10 10:10:38;;;;;;;390.90;370.37;;;;;;;35.74;19.29;93697.09;5091451;28;20161;-48
2021/09/10 10:13:05;;;;;;;378.58;358.33;;;;;;;36.22;17.90;93684.28;5092388;28;20024;-47
2021/09/10 10:15:31;;;;;;;333.13;315.98;;;;;;;35.43;17.66;93695.47;5092891;28;20107;-50
2021/09/10 10:17:57;;;;;;;407.83;386.30;;;;;;;35.33;19.56;93692.56;5092244;28;20684;-46
2021/09/10 10:20:45;;;;;;;328.75;311.90;;;;;;;34.74;18.83;93697.22;5092642;28;20115;-50
2021/09/10 10:23:49;;;;;;;376.98;358.08;;;;;;;34.96;20.46;93690.91;5092335;28;20032;-51
2021/09/10 10:26:35;;;;;;;323.08;307.10;;;;;;;34.71;19.32;93690.03;5092240;28;20027;-48
2021/09/10 10:29:12;;;;;;;373.00;353.30;;;;;;;34.93;20.76;93698.06;5071666;28;20062;-51
2021/09/10 10:32:00;;;;;;;372.65;353.85;;;;;;;34.61;20.17;93687.06;5070403;28;20048;-51
2021/09/10 10:34:26;;;;;;;345.70;327.27;;;;;;;35.13;19.30;93698.19;5071811;28;20037;-50
2021/09/10 10:36:52;;;;;;;352.08;334.42;;;;;;;34.37;20.57;93681.13;5071766;28;20550;-50
2021/09/10 10:39:26;;;;;;;300.08;285.23;;;;;;;34.49;19.37;93680.50;5071708;28;20025;-47
2021/09/10 10:41:56;;;;;;;337.45;320.30;;;;;;;33.54;20.95;93685.28;5070480;28;20043;-50
2021/09/10 10:44:33;;;;;;;348.20;330.20;;;;;;;33.04;21.64;93687.44;5071664;28;20032;-49
2021/09/10 10:47:07;;;;;;;325.23;308.75;;;;;;;32.77;23.10;93681.34;5071789;28;20103;-50
2021/09/10 10:49:33;;;;;;;327.33;310.75;;;;;;;33.29;21.90;93684.22;5071876;28;20127;-53
2021/09/10 10:51:59;;;;;;;317.63;302.05;;;;;;;34.04;21.41;93685.84;5071779;28;20090;-48
2021/09/10 10:54:29;;;;;;;290.02;275.70;;;;;;;33.55;20.44;93683.84;5071704;28;20513;-48